sensor_id;sensor_type;location;lat;lon;timestamp;temperature;humidity
2913;DHT22;1466;48.778;9.166;2023-04-10T00:01:35;11.30;82.80
2913;DHT22;1466;48.778;9.166;2023-04-10T00:04:01;11.20;82.80
2913;DHT22;1466;48.778;9.166;2023-04-10T00:06:27;11.10;82.90
2913;DHT22;1466;48.778;9.166;2023-04-10T00:08:53;11.10;82.90
2913;DHT22;1466;48.778;9.166;2023-04-10T00:11:19;11.00;83.20
2913;DHT22;1466;48.778;9.166;2023-04-10T00:13:44;10.80;83.10
2913;DHT22;1466;48.778;9.166;2023-04-10T00:16:10;10.60;83.50
2913;DHT22;1466;48.778;9.166;2023-04-10T00:18:36;10.60;84.00
2913;DHT22;1466;48.778;9.166;2023-04-10T00:21:04;10.50;84.30
2913;DHT22;1466;48.778;9.166;2023-04-10T00:23:30;10.50;84.70
2913;DHT22;1466;48.778;9.166;2023-04-10T00:26:02;10.50;84.60
2913;DHT22;1466;48.778;9.166;2023-04-10T00:28:27;10.50;84.90
2913;DHT22;1466;48.778;9.166;2023-04-10T00:30:53;10.40;85.00
2913;DHT22;1466;48.778;9.166;2023-04-10T00:33:18;10.40;85.20
2913;DHT22;1466;48.778;9.166;2023-04-10T00:35:44;10.30;85.40
2913;DHT22;1466;48.778;9.166;2023-04-10T00:38:10;10.20;85.50
2913;DHT22;1466;48.778;9.166;2023-04-10T00:40:36;10.20;85.90
2913;DHT22;1466;48.778;9.166;2023-04-10T00:43:01;10.20;86.10
2913;DHT22;1466;48.778;9.166;2023-04-10T00:45:27;10.20;86.20
2913;DHT22;1466;48.778;9.166;2023-04-10T00:47:53;10.30;86.20
2913;DHT22;1466;48.778;9.166;2023-04-10T00:50:20;10.20;86.20
2913;DHT22;1466;48.778;9.166;2023-04-10T00:52:47;10.20;86.50
2913;DHT22;1466;48.778;9.166;2023-04-10T00:55:13;10.30;86.50
2913;DHT22;1466;48.778;9.166;2023-04-10T00:57:43;10.30;86.40
2913;DHT22;1466;48.778;9.166;2023-04-10T01:00:10;10.30;86.50
2913;DHT22;1466;48.778;9.166;2023-04-10T01:02:35;10.30;86.80
2913;DHT22;1466;48.778;9.166;2023-04-10T01:05:01;10.40;86.80
2913;DHT22;1466;48.778;9.166;2023-04-10T01:15:20;10.10;86.80
2913;DHT22;1466;48.778;9.166;2023-04-10T01:17:51;10.00;87.20
2913;DHT22;1466;48.778;9.166;2023-04-10T01:20:29;9.90;88.60
2913;DHT22;1466;48.778;9.166;2023-04-10T01:25:50;10.00;88.10
2913;DHT22;1466;48.778;9.166;2023-04-10T01:28:48;9.90;89.20
2913;DHT22;1466;48.778;9.166;2023-04-10T01:31:20;10.00;88.30
2913;DHT22;1466;48.778;9.166;2023-04-10T01:33:50;10.00;88.30
2913;DHT22;1466;48.778;9.166;2023-04-10T01:36:27;10.10;88.50
2913;DHT22;1466;48.778;9.166;2023-04-10T01:38:56;10.10;88.30
2913;DHT22;1466;48.778;9.166;2023-04-10T01:41:24;10.10;88.40
2913;DHT22;1466;48.778;9.166;2023-04-10T01:43:51;10.10;88.20
2913;DHT22;1466;48.778;9.166;2023-04-10T01:46:18;10.00;88.20
2913;DHT22;1466;48.778;9.166;2023-04-10T01:48:46;10.00;88.30
2913;DHT22;1466;48.778;9.166;2023-04-10T01:51:13;9.90;89.60
2913;DHT22;1466;48.778;9.166;2023-04-10T01:53:40;9.90;89.90
2913;DHT22;1466;48.778;9.166;2023-04-10T01:56:08;9.80;90.10
2913;DHT22;1466;48.778;9.166;2023-04-10T01:58:36;9.80;90.10
2913;DHT22;1466;48.778;9.166;2023-04-10T02:01:02;9.80;90.10
2913;DHT22;1466;48.778;9.166;2023-04-10T02:03:28;9.80;90.20
2913;DHT22;1466;48.778;9.166;2023-04-10T02:08:54;9.80;90.20
2913;DHT22;1466;48.778;9.166;2023-04-10T02:11:33;9.80;90.10
2913;DHT22;1466;48.778;9.166;2023-04-10T02:14:04;9.70;90.10
2913;DHT22;1466;48.778;9.166;2023-04-10T02:16:32;9.70;90.30
2913;DHT22;1466;48.778;9.166;2023-04-10T02:22:30;9.50;90.50
2913;DHT22;1466;48.778;9.166;2023-04-10T02:25:30;9.50;90.70
2913;DHT22;1466;48.778;9.166;2023-04-10T02:28:19;9.50;90.90
2913;DHT22;1466;48.778;9.166;2023-04-10T02:37:33;9.50;90.80
2913;DHT22;1466;48.778;9.166;2023-04-10T02:40:07;9.40;90.80
2913;DHT22;1466;48.778;9.166;2023-04-10T02:42:34;9.30;91.00
2913;DHT22;1466;48.778;9.166;2023-04-10T02:45:12;9.30;91.10
2913;DHT22;1466;48.778;9.166;2023-04-10T02:47:44;9.40;91.20
2913;DHT22;1466;48.778;9.166;2023-04-10T02:50:13;9.30;91.10
2913;DHT22;1466;48.778;9.166;2023-04-10T02:52:50;9.40;91.10
2913;DHT22;1466;48.778;9.166;2023-04-10T02:55:31;9.40;91.10
2913;DHT22;1466;48.778;9.166;2023-04-10T03:00:47;9.30;91.00
2913;DHT22;1466;48.778;9.166;2023-04-10T03:03:19;9.20;91.20
2913;DHT22;1466;48.778;9.166;2023-04-10T03:05:46;9.20;91.30
2913;DHT22;1466;48.778;9.166;2023-04-10T03:08:14;9.20;91.30
2913;DHT22;1466;48.778;9.166;2023-04-10T03:10:45;9.20;91.20
2913;DHT22;1466;48.778;9.166;2023-04-10T03:13:13;9.20;91.40
2913;DHT22;1466;48.778;9.166;2023-04-10T03:15:45;9.20;91.20
2913;DHT22;1466;48.778;9.166;2023-04-10T03:18:11;9.10;91.30
2913;DHT22;1466;48.778;9.166;2023-04-10T03:20:39;9.10;91.30
2913;DHT22;1466;48.778;9.166;2023-04-10T03:23:05;9.10;91.50
2913;DHT22;1466;48.778;9.166;2023-04-10T03:25:35;9.00;91.50
2913;DHT22;1466;48.778;9.166;2023-04-10T03:28:07;9.00;91.50
2913;DHT22;1466;48.778;9.166;2023-04-10T03:30:34;9.00;91.60
2913;DHT22;1466;48.778;9.166;2023-04-10T03:33:07;9.10;91.60
2913;DHT22;1466;48.778;9.166;2023-04-10T03:35:33;9.00;91.80
2913;DHT22;1466;48.778;9.166;2023-04-10T03:38:03;9.10;91.70
2913;DHT22;1466;48.778;9.166;2023-04-10T03:40:32;9.20;91.60
2913;DHT22;1466;48.778;9.166;2023-04-10T03:43:14;9.20;91.70
2913;DHT22;1466;48.778;9.166;2023-04-10T03:45:42;9.10;91.50
2913;DHT22;1466;48.778;9.166;2023-04-10T03:48:08;9.10;91.60
2913;DHT22;1466;48.778;9.166;2023-04-10T03:50:34;9.00;91.70
2913;DHT22;1466;48.778;9.166;2023-04-10T03:53:03;9.00;91.90
2913;DHT22;1466;48.778;9.166;2023-04-10T03:55:41;8.90;91.90
2913;DHT22;1466;48.778;9.166;2023-04-10T03:58:10;8.90;91.90
2913;DHT22;1466;48.778;9.166;2023-04-10T04:00:38;8.90;92.00
2913;DHT22;1466;48.778;9.166;2023-04-10T04:03:06;8.90;92.10
2913;DHT22;1466;48.778;9.166;2023-04-10T04:05:46;8.90;92.00
2913;DHT22;1466;48.778;9.166;2023-04-10T04:08:17;8.90;92.10
2913;DHT22;1466;48.778;9.166;2023-04-10T04:10:54;9.00;92.20
2913;DHT22;1466;48.778;9.166;2023-04-10T04:13:27;8.90;92.10
2913;DHT22;1466;48.778;9.166;2023-04-10T04:15:59;8.90;92.10
2913;DHT22;1466;48.778;9.166;2023-04-10T04:18:30;8.80;92.20
2913;DHT22;1466;48.778;9.166;2023-04-10T04:20:59;8.80;92.20
2913;DHT22;1466;48.778;9.166;2023-04-10T04:26:21;8.70;92.30
2913;DHT22;1466;48.778;9.166;2023-04-10T04:28:52;8.70;92.30
2913;DHT22;1466;48.778;9.166;2023-04-10T04:31:21;8.70;92.70
2913;DHT22;1466;48.778;9.166;2023-04-10T04:34:00;8.70;92.50
2913;DHT22;1466;48.778;9.166;2023-04-10T04:39:38;8.70;92.40
2913;DHT22;1466;48.778;9.166;2023-04-10T04:42:25;8.70;92.50
2913;DHT22;1466;48.778;9.166;2023-04-10T04:44:57;8.70;92.50
2913;DHT22;1466;48.778;9.166;2023-04-10T04:47:40;8.80;92.60
2913;DHT22;1466;48.778;9.166;2023-04-10T04:50:11;8.80;92.60
2913;DHT22;1466;48.778;9.166;2023-04-10T04:52:51;8.80;92.40
2913;DHT22;1466;48.778;9.166;2023-04-10T04:55:26;8.80;92.50
2913;DHT22;1466;48.778;9.166;2023-04-10T04:57:55;8.80;92.40
2913;DHT22;1466;48.778;9.166;2023-04-10T05:00:21;8.90;92.70
2913;DHT22;1466;48.778;9.166;2023-04-10T05:02:54;8.90;92.50
2913;DHT22;1466;48.778;9.166;2023-04-10T05:05:29;8.90;92.50
2913;DHT22;1466;48.778;9.166;2023-04-10T05:07:56;8.90;92.50
2913;DHT22;1466;48.778;9.166;2023-04-10T05:10:28;8.90;92.60
2913;DHT22;1466;48.778;9.166;2023-04-10T05:13:00;9.00;92.60
2913;DHT22;1466;48.778;9.166;2023-04-10T05:15:51;9.00;92.50
2913;DHT22;1466;48.778;9.166;2023-04-10T05:18:21;8.90;92.60
2913;DHT22;1466;48.778;9.166;2023-04-10T05:20:48;8.90;92.60
2913;DHT22;1466;48.778;9.166;2023-04-10T05:23:17;8.90;92.80
2913;DHT22;1466;48.778;9.166;2023-04-10T05:25:55;8.90;92.80
2913;DHT22;1466;48.778;9.166;2023-04-10T05:28:27;8.90;92.80
2913;DHT22;1466;48.778;9.166;2023-04-10T05:30:53;8.90;92.80
2913;DHT22;1466;48.778;9.166;2023-04-10T05:33:20;9.00;92.80
2913;DHT22;1466;48.778;9.166;2023-04-10T05:35:49;9.00;92.70
2913;DHT22;1466;48.778;9.166;2023-04-10T05:38:18;9.10;92.70
2913;DHT22;1466;48.778;9.166;2023-04-10T05:41:00;9.10;92.70
2913;DHT22;1466;48.778;9.166;2023-04-10T05:43:31;9.10;92.70
2913;DHT22;1466;48.778;9.166;2023-04-10T05:49:53;9.30;92.70
2913;DHT22;1466;48.778;9.166;2023-04-10T05:52:41;9.30;93.00
2913;DHT22;1466;48.778;9.166;2023-04-10T05:58:29;9.50;92.60
2913;DHT22;1466;48.778;9.166;2023-04-10T06:01:03;9.60;92.50
2913;DHT22;1466;48.778;9.166;2023-04-10T06:06:34;9.60;92.30
2913;DHT22;1466;48.778;9.166;2023-04-10T06:09:15;9.50;92.30
2913;DHT22;1466;48.778;9.166;2023-04-10T06:12:25;9.70;92.50
2913;DHT22;1466;48.778;9.166;2023-04-10T06:15:13;9.70;92.40
2913;DHT22;1466;48.778;9.166;2023-04-10T06:17:49;9.80;92.20
2913;DHT22;1466;48.778;9.166;2023-04-10T06:20:24;9.80;92.20
2913;DHT22;1466;48.778;9.166;2023-04-10T06:23:08;9.90;92.20
2913;DHT22;1466;48.778;9.166;2023-04-10T06:25:44;9.90;92.10
2913;DHT22;1466;48.778;9.166;2023-04-10T06:28:34;9.90;92.20
2913;DHT22;1466;48.778;9.166;2023-04-10T06:31:19;9.80;92.00
2913;DHT22;1466;48.778;9.166;2023-04-10T06:34:13;9.80;91.90
2913;DHT22;1466;48.778;9.166;2023-04-10T06:37:11;9.70;92.30
2913;DHT22;1466;48.778;9.166;2023-04-10T06:39:51;9.90;92.00
2913;DHT22;1466;48.778;9.166;2023-04-10T06:42:30;9.90;92.00
2913;DHT22;1466;48.778;9.166;2023-04-10T06:45:11;9.90;92.00
2913;DHT22;1466;48.778;9.166;2023-04-10T06:47:53;10.00;91.50
2913;DHT22;1466;48.778;9.166;2023-04-10T06:50:37;10.00;91.60
2913;DHT22;1466;48.778;9.166;2023-04-10T06:53:03;10.20;91.50
2913;DHT22;1466;48.778;9.166;2023-04-10T06:55:37;10.20;91.50
2913;DHT22;1466;48.778;9.166;2023-04-10T06:58:03;10.30;91.40
2913;DHT22;1466;48.778;9.166;2023-04-10T07:00:34;10.20;91.40
2913;DHT22;1466;48.778;9.166;2023-04-10T07:03:18;10.30;91.50
2913;DHT22;1466;48.778;9.166;2023-04-10T07:05:53;10.40;91.00
2913;DHT22;1466;48.778;9.166;2023-04-10T07:08:26;10.40;90.40
2913;DHT22;1466;48.778;9.166;2023-04-10T07:10:55;10.50;90.20
2913;DHT22;1466;48.778;9.166;2023-04-10T07:13:20;10.60;89.90
2913;DHT22;1466;48.778;9.166;2023-04-10T07:15:46;10.70;89.50
2913;DHT22;1466;48.778;9.166;2023-04-10T07:18:11;10.80;88.20
2913;DHT22;1466;48.778;9.166;2023-04-10T07:20:37;10.90;87.80
2913;DHT22;1466;48.778;9.166;2023-04-10T07:23:02;11.00;87.70
2913;DHT22;1466;48.778;9.166;2023-04-10T07:25:28;11.10;87.50
2913;DHT22;1466;48.778;9.166;2023-04-10T07:27:53;11.10;87.30
2913;DHT22;1466;48.778;9.166;2023-04-10T07:30:19;11.20;87.20
2913;DHT22;1466;48.778;9.166;2023-04-10T07:32:45;11.40;86.90
2913;DHT22;1466;48.778;9.166;2023-04-10T07:35:10;11.40;86.70
2913;DHT22;1466;48.778;9.166;2023-04-10T07:37:36;11.50;86.60
2913;DHT22;1466;48.778;9.166;2023-04-10T07:40:05;11.50;85.50
2913;DHT22;1466;48.778;9.166;2023-04-10T07:42:30;11.60;85.00
2913;DHT22;1466;48.778;9.166;2023-04-10T07:44:56;11.70;84.80
2913;DHT22;1466;48.778;9.166;2023-04-10T07:47:22;11.80;84.20
2913;DHT22;1466;48.778;9.166;2023-04-10T07:49:47;11.90;83.90
2913;DHT22;1466;48.778;9.166;2023-04-10T07:52:13;12.00;82.90
2913;DHT22;1466;48.778;9.166;2023-04-10T07:54:39;12.10;82.10
2913;DHT22;1466;48.778;9.166;2023-04-10T07:57:04;12.20;82.00
2913;DHT22;1466;48.778;9.166;2023-04-10T07:59:33;12.40;81.40
2913;DHT22;1466;48.778;9.166;2023-04-10T08:01:58;12.50;80.90
2913;DHT22;1466;48.778;9.166;2023-04-10T08:04:24;12.50;80.30
2913;DHT22;1466;48.778;9.166;2023-04-10T08:06:49;12.60;79.90
2913;DHT22;1466;48.778;9.166;2023-04-10T08:09:15;12.80;79.80
2913;DHT22;1466;48.778;9.166;2023-04-10T08:11:41;12.90;79.00
2913;DHT22;1466;48.778;9.166;2023-04-10T08:14:07;13.00;78.30
2913;DHT22;1466;48.778;9.166;2023-04-10T08:16:33;13.10;77.60
2913;DHT22;1466;48.778;9.166;2023-04-10T08:19:00;13.20;77.30
2913;DHT22;1466;48.778;9.166;2023-04-10T08:21:28;13.30;77.00
2913;DHT22;1466;48.778;9.166;2023-04-10T08:23:55;13.40;76.60
2913;DHT22;1466;48.778;9.166;2023-04-10T08:26:21;13.50;75.80
2913;DHT22;1466;48.778;9.166;2023-04-10T08:28:51;13.50;75.50
2913;DHT22;1466;48.778;9.166;2023-04-10T08:31:17;13.60;75.00
2913;DHT22;1466;48.778;9.166;2023-04-10T08:33:43;13.60;74.90
2913;DHT22;1466;48.778;9.166;2023-04-10T08:36:09;13.70;74.40
2913;DHT22;1466;48.778;9.166;2023-04-10T08:38:35;13.70;73.50
2913;DHT22;1466;48.778;9.166;2023-04-10T08:41:00;13.70;73.60
2913;DHT22;1466;48.778;9.166;2023-04-10T08:43:26;13.80;73.20
2913;DHT22;1466;48.778;9.166;2023-04-10T08:45:53;13.90;72.80
2913;DHT22;1466;48.778;9.166;2023-04-10T08:48:19;14.00;72.90
2913;DHT22;1466;48.778;9.166;2023-04-10T08:50:46;14.10;72.30
2913;DHT22;1466;48.778;9.166;2023-04-10T08:53:13;14.20;71.70
2913;DHT22;1466;48.778;9.166;2023-04-10T08:55:40;14.30;70.90
2913;DHT22;1466;48.778;9.166;2023-04-10T08:58:06;14.40;70.50
2913;DHT22;1466;48.778;9.166;2023-04-10T09:00:34;14.50;69.90
2913;DHT22;1466;48.778;9.166;2023-04-10T09:03:03;14.50;69.70
2913;DHT22;1466;48.778;9.166;2023-04-10T09:05:29;14.60;69.60
2913;DHT22;1466;48.778;9.166;2023-04-10T09:07:55;14.60;69.60
2913;DHT22;1466;48.778;9.166;2023-04-10T09:10:22;14.80;69.80
2913;DHT22;1466;48.778;9.166;2023-04-10T09:12:48;14.90;69.90
2913;DHT22;1466;48.778;9.166;2023-04-10T09:15:14;15.00;69.70
2913;DHT22;1466;48.778;9.166;2023-04-10T09:18:00;15.10;69.60
2913;DHT22;1466;48.778;9.166;2023-04-10T09:20:30;15.30;69.40
2913;DHT22;1466;48.778;9.166;2023-04-10T09:22:56;15.40;68.30
2913;DHT22;1466;48.778;9.166;2023-04-10T09:25:34;15.50;68.10
2913;DHT22;1466;48.778;9.166;2023-04-10T09:28:01;15.70;68.10
2913;DHT22;1466;48.778;9.166;2023-04-10T09:30:36;16.20;67.50
2913;DHT22;1466;48.778;9.166;2023-04-10T09:33:01;16.80;66.30
2913;DHT22;1466;48.778;9.166;2023-04-10T09:35:35;17.30;65.00
2913;DHT22;1466;48.778;9.166;2023-04-10T09:38:16;17.70;64.40
2913;DHT22;1466;48.778;9.166;2023-04-10T09:40:42;18.10;63.50
2913;DHT22;1466;48.778;9.166;2023-04-10T09:45:54;18.50;61.50
2913;DHT22;1466;48.778;9.166;2023-04-10T09:48:22;18.60;60.60
2913;DHT22;1466;48.778;9.166;2023-04-10T09:50:47;18.60;60.00
2913;DHT22;1466;48.778;9.166;2023-04-10T09:53:15;18.60;59.90
2913;DHT22;1466;48.778;9.166;2023-04-10T09:55:42;18.60;59.60
2913;DHT22;1466;48.778;9.166;2023-04-10T09:58:08;18.60;59.50
2913;DHT22;1466;48.778;9.166;2023-04-10T10:00:38;18.60;59.50
2913;DHT22;1466;48.778;9.166;2023-04-10T10:03:07;18.50;58.90
2913;DHT22;1466;48.778;9.166;2023-04-10T10:05:39;18.30;58.90
2913;DHT22;1466;48.778;9.166;2023-04-10T10:08:07;18.30;59.50
2913;DHT22;1466;48.778;9.166;2023-04-10T10:10:32;18.20;59.00
2913;DHT22;1466;48.778;9.166;2023-04-10T10:13:00;18.00;59.10
2913;DHT22;1466;48.778;9.166;2023-04-10T10:18:12;17.80;59.50
2913;DHT22;1466;48.778;9.166;2023-04-10T10:20:43;17.70;59.70
2913;DHT22;1466;48.778;9.166;2023-04-10T10:23:10;17.60;59.60
2913;DHT22;1466;48.778;9.166;2023-04-10T10:25:36;17.50;59.40
2913;DHT22;1466;48.778;9.166;2023-04-10T10:28:03;17.50;59.30
2913;DHT22;1466;48.778;9.166;2023-04-10T10:30:33;17.50;59.10
2913;DHT22;1466;48.778;9.166;2023-04-10T10:33:00;17.60;58.80
2913;DHT22;1466;48.778;9.166;2023-04-10T10:35:27;17.60;57.60
2913;DHT22;1466;48.778;9.166;2023-04-10T10:37:54;17.70;56.90
2913;DHT22;1466;48.778;9.166;2023-04-10T10:40:25;17.80;56.10
2913;DHT22;1466;48.778;9.166;2023-04-10T10:46:02;18.10;53.90
2913;DHT22;1466;48.778;9.166;2023-04-10T10:48:28;18.30;53.90
2913;DHT22;1466;48.778;9.166;2023-04-10T10:50:55;18.40;53.30
2913;DHT22;1466;48.778;9.166;2023-04-10T10:53:38;18.60;52.90
2913;DHT22;1466;48.778;9.166;2023-04-10T10:58:49;18.90;52.20
2913;DHT22;1466;48.778;9.166;2023-04-10T11:01:15;18.90;52.00
2913;DHT22;1466;48.778;9.166;2023-04-10T11:03:41;18.90;51.70
2913;DHT22;1466;48.778;9.166;2023-04-10T11:06:11;18.90;50.60
2913;DHT22;1466;48.778;9.166;2023-04-10T11:08:41;18.90;50.50
2913;DHT22;1466;48.778;9.166;2023-04-10T11:11:21;18.90;49.80
2913;DHT22;1466;48.778;9.166;2023-04-10T11:16:43;18.70;48.40
2913;DHT22;1466;48.778;9.166;2023-04-10T11:19:10;18.70;48.80
2913;DHT22;1466;48.778;9.166;2023-04-10T11:24:26;18.80;49.00
2913;DHT22;1466;48.778;9.166;2023-04-10T11:26:52;18.90;48.80
2913;DHT22;1466;48.778;9.166;2023-04-10T11:31:57;19.00;48.60
2913;DHT22;1466;48.778;9.166;2023-04-10T11:34:23;19.00;48.70
2913;DHT22;1466;48.778;9.166;2023-04-10T11:36:49;19.10;48.70
2913;DHT22;1466;48.778;9.166;2023-04-10T11:39:16;19.00;48.30
2913;DHT22;1466;48.778;9.166;2023-04-10T11:41:54;18.90;48.10
2913;DHT22;1466;48.778;9.166;2023-04-10T11:44:29;18.80;48.20
2913;DHT22;1466;48.778;9.166;2023-04-10T11:46:56;18.80;48.40
2913;DHT22;1466;48.778;9.166;2023-04-10T11:49:24;19.00;48.70
2913;DHT22;1466;48.778;9.166;2023-04-10T11:51:51;19.00;48.40
2913;DHT22;1466;48.778;9.166;2023-04-10T11:54:19;19.00;48.60
2913;DHT22;1466;48.778;9.166;2023-04-10T11:59:22;19.00;47.50
2913;DHT22;1466;48.778;9.166;2023-04-10T12:01:48;19.00;47.00
2913;DHT22;1466;48.778;9.166;2023-04-10T12:04:18;19.00;46.60
2913;DHT22;1466;48.778;9.166;2023-04-10T12:06:45;18.90;46.60
2913;DHT22;1466;48.778;9.166;2023-04-10T12:09:13;18.80;45.90
2913;DHT22;1466;48.778;9.166;2023-04-10T12:12:08;18.90;45.50
2913;DHT22;1466;48.778;9.166;2023-04-10T12:17:01;19.10;45.40
2913;DHT22;1466;48.778;9.166;2023-04-10T12:19:27;19.20;45.00
2913;DHT22;1466;48.778;9.166;2023-04-10T12:21:57;19.30;44.70
2913;DHT22;1466;48.778;9.166;2023-04-10T12:24:48;19.40;44.80
2913;DHT22;1466;48.778;9.166;2023-04-10T12:27:26;19.50;44.70
2913;DHT22;1466;48.778;9.166;2023-04-10T12:29:53;19.50;43.50
2913;DHT22;1466;48.778;9.166;2023-04-10T12:32:19;19.50;42.60
2913;DHT22;1466;48.778;9.166;2023-04-10T12:34:55;19.50;42.60
2913;DHT22;1466;48.778;9.166;2023-04-10T12:37:22;19.50;42.90
2913;DHT22;1466;48.778;9.166;2023-04-10T12:39:47;19.60;42.20
2913;DHT22;1466;48.778;9.166;2023-04-10T12:44:58;19.70;42.30
2913;DHT22;1466;48.778;9.166;2023-04-10T12:47:25;19.80;42.30
2913;DHT22;1466;48.778;9.166;2023-04-10T12:52:28;19.70;41.40
2913;DHT22;1466;48.778;9.166;2023-04-10T12:55:07;19.80;41.80
2913;DHT22;1466;48.778;9.166;2023-04-10T12:57:33;19.80;42.40
2913;DHT22;1466;48.778;9.166;2023-04-10T12:59:58;19.80;42.70
2913;DHT22;1466;48.778;9.166;2023-04-10T13:02:26;20.00;43.10
2913;DHT22;1466;48.778;9.166;2023-04-10T13:04:53;20.10;42.90
2913;DHT22;1466;48.778;9.166;2023-04-10T13:07:19;20.20;42.70
2913;DHT22;1466;48.778;9.166;2023-04-10T13:09:44;20.10;42.30
2913;DHT22;1466;48.778;9.166;2023-04-10T13:12:11;20.10;42.30
2913;DHT22;1466;48.778;9.166;2023-04-10T13:14:36;20.10;42.10
2913;DHT22;1466;48.778;9.166;2023-04-10T13:17:02;20.00;42.20
2913;DHT22;1466;48.778;9.166;2023-04-10T13:19:28;20.10;42.60
2913;DHT22;1466;48.778;9.166;2023-04-10T13:21:53;20.20;42.80
2913;DHT22;1466;48.778;9.166;2023-04-10T13:24:20;20.30;42.80
2913;DHT22;1466;48.778;9.166;2023-04-10T13:26:46;20.40;42.90
2913;DHT22;1466;48.778;9.166;2023-04-10T13:29:11;20.40;42.40
2913;DHT22;1466;48.778;9.166;2023-04-10T13:31:37;20.40;42.50
2913;DHT22;1466;48.778;9.166;2023-04-10T13:34:20;20.50;42.60
2913;DHT22;1466;48.778;9.166;2023-04-10T13:36:45;20.50;42.90
2913;DHT22;1466;48.778;9.166;2023-04-10T13:39:11;20.40;42.90
2913;DHT22;1466;48.778;9.166;2023-04-10T13:41:37;20.30;43.10
2913;DHT22;1466;48.778;9.166;2023-04-10T13:44:02;20.30;43.30
2913;DHT22;1466;48.778;9.166;2023-04-10T13:46:30;20.30;43.40
2913;DHT22;1466;48.778;9.166;2023-04-10T13:48:56;20.30;43.60
2913;DHT22;1466;48.778;9.166;2023-04-10T13:51:21;20.30;43.70
2913;DHT22;1466;48.778;9.166;2023-04-10T13:53:50;20.30;43.80
2913;DHT22;1466;48.778;9.166;2023-04-10T13:56:15;20.40;44.00
2913;DHT22;1466;48.778;9.166;2023-04-10T13:58:41;20.40;44.10
2913;DHT22;1466;48.778;9.166;2023-04-10T14:01:06;20.40;44.00
2913;DHT22;1466;48.778;9.166;2023-04-10T14:03:32;20.30;43.80
2913;DHT22;1466;48.778;9.166;2023-04-10T14:05:58;20.20;44.00
2913;DHT22;1466;48.778;9.166;2023-04-10T14:08:23;20.20;44.20
2913;DHT22;1466;48.778;9.166;2023-04-10T14:10:49;20.30;44.20
2913;DHT22;1466;48.778;9.166;2023-04-10T14:13:17;20.10;44.30
2913;DHT22;1466;48.778;9.166;2023-04-10T14:15:43;20.20;44.60
2913;DHT22;1466;48.778;9.166;2023-04-10T14:18:09;20.30;44.80
2913;DHT22;1466;48.778;9.166;2023-04-10T14:20:35;20.30;44.40
2913;DHT22;1466;48.778;9.166;2023-04-10T14:23:00;20.30;44.40
2913;DHT22;1466;48.778;9.166;2023-04-10T14:25:26;20.30;44.50
2913;DHT22;1466;48.778;9.166;2023-04-10T14:27:52;20.30;44.60
2913;DHT22;1466;48.778;9.166;2023-04-10T14:30:17;20.20;44.60
2913;DHT22;1466;48.778;9.166;2023-04-10T14:32:43;20.30;44.80
2913;DHT22;1466;48.778;9.166;2023-04-10T14:35:09;20.20;44.70
2913;DHT22;1466;48.778;9.166;2023-04-10T14:37:35;20.20;45.10
2913;DHT22;1466;48.778;9.166;2023-04-10T14:40:01;20.10;45.30
2913;DHT22;1466;48.778;9.166;2023-04-10T14:42:29;20.10;45.40
2913;DHT22;1466;48.778;9.166;2023-04-10T14:44:54;20.10;45.50
2913;DHT22;1466;48.778;9.166;2023-04-10T14:47:23;20.10;45.40
2913;DHT22;1466;48.778;9.166;2023-04-10T14:49:48;20.10;45.40
2913;DHT22;1466;48.778;9.166;2023-04-10T14:52:14;20.00;45.60
2913;DHT22;1466;48.778;9.166;2023-04-10T14:54:40;20.00;45.40
2913;DHT22;1466;48.778;9.166;2023-04-10T14:57:05;20.00;45.30
2913;DHT22;1466;48.778;9.166;2023-04-10T14:59:31;20.00;45.50
2913;DHT22;1466;48.778;9.166;2023-04-10T15:01:57;20.00;45.70
2913;DHT22;1466;48.778;9.166;2023-04-10T15:04:22;20.20;46.00
2913;DHT22;1466;48.778;9.166;2023-04-10T15:06:48;20.30;46.00
2913;DHT22;1466;48.778;9.166;2023-04-10T15:09:13;20.30;45.90
2913;DHT22;1466;48.778;9.166;2023-04-10T15:11:39;20.30;45.80
2913;DHT22;1466;48.778;9.166;2023-04-10T15:14:05;20.30;45.80
2913;DHT22;1466;48.778;9.166;2023-04-10T15:16:31;20.30;46.00
2913;DHT22;1466;48.778;9.166;2023-04-10T15:18:57;20.20;46.00
2913;DHT22;1466;48.778;9.166;2023-04-10T15:21:22;20.30;46.30
2913;DHT22;1466;48.778;9.166;2023-04-10T15:23:48;20.20;46.20
2913;DHT22;1466;48.778;9.166;2023-04-10T15:26:14;20.10;46.10
2913;DHT22;1466;48.778;9.166;2023-04-10T15:28:41;20.00;46.20
2913;DHT22;1466;48.778;9.166;2023-04-10T15:31:10;19.80;46.20
2913;DHT22;1466;48.778;9.166;2023-04-10T15:33:35;19.70;46.50
2913;DHT22;1466;48.778;9.166;2023-04-10T15:36:03;19.80;46.70
2913;DHT22;1466;48.778;9.166;2023-04-10T15:38:30;19.90;47.00
2913;DHT22;1466;48.778;9.166;2023-04-10T15:40:57;19.90;47.20
2913;DHT22;1466;48.778;9.166;2023-04-10T15:43:23;19.90;47.30
2913;DHT22;1466;48.778;9.166;2023-04-10T15:45:48;19.80;47.20
2913;DHT22;1466;48.778;9.166;2023-04-10T15:48:14;19.70;47.50
2913;DHT22;1466;48.778;9.166;2023-04-10T15:50:40;19.70;47.70
2913;DHT22;1466;48.778;9.166;2023-04-10T15:53:05;19.70;47.90
2913;DHT22;1466;48.778;9.166;2023-04-10T15:55:31;19.70;48.10
2913;DHT22;1466;48.778;9.166;2023-04-10T15:57:56;19.70;48.20
2913;DHT22;1466;48.778;9.166;2023-04-10T16:00:22;19.60;48.30
2913;DHT22;1466;48.778;9.166;2023-04-10T16:02:48;19.60;48.50
2913;DHT22;1466;48.778;9.166;2023-04-10T16:05:14;19.60;48.70
2913;DHT22;1466;48.778;9.166;2023-04-10T16:07:40;19.60;48.90
2913;DHT22;1466;48.778;9.166;2023-04-10T16:10:08;19.60;49.00
2913;DHT22;1466;48.778;9.166;2023-04-10T16:12:34;19.60;49.20
2913;DHT22;1466;48.778;9.166;2023-04-10T16:15:00;19.50;49.20
2913;DHT22;1466;48.778;9.166;2023-04-10T16:17:26;19.50;49.30
2913;DHT22;1466;48.778;9.166;2023-04-10T16:19:52;19.50;49.50
2913;DHT22;1466;48.778;9.166;2023-04-10T16:22:17;19.50;49.60
2913;DHT22;1466;48.778;9.166;2023-04-10T16:24:43;19.50;49.80
2913;DHT22;1466;48.778;9.166;2023-04-10T16:27:09;19.60;49.90
2913;DHT22;1466;48.778;9.166;2023-04-10T16:29:34;19.50;50.50
2913;DHT22;1466;48.778;9.166;2023-04-10T16:32:00;19.50;50.00
2913;DHT22;1466;48.778;9.166;2023-04-10T16:34:26;19.40;50.10
2913;DHT22;1466;48.778;9.166;2023-04-10T16:36:51;19.40;50.20
2913;DHT22;1466;48.778;9.166;2023-04-10T16:39:17;19.40;50.30
2913;DHT22;1466;48.778;9.166;2023-04-10T16:41:43;19.50;50.50
2913;DHT22;1466;48.778;9.166;2023-04-10T16:44:08;19.50;50.50
2913;DHT22;1466;48.778;9.166;2023-04-10T16:46:34;19.50;50.60
2913;DHT22;1466;48.778;9.166;2023-04-10T16:49:00;19.50;50.70
2913;DHT22;1466;48.778;9.166;2023-04-10T16:51:26;19.50;50.80
2913;DHT22;1466;48.778;9.166;2023-04-10T16:53:52;19.40;50.90
2913;DHT22;1466;48.778;9.166;2023-04-10T16:56:17;19.40;51.10
2913;DHT22;1466;48.778;9.166;2023-04-10T16:58:43;19.40;51.20
2913;DHT22;1466;48.778;9.166;2023-04-10T17:03:42;19.30;51.40
2913;DHT22;1466;48.778;9.166;2023-04-10T17:06:08;19.20;51.50
2913;DHT22;1466;48.778;9.166;2023-04-10T17:08:34;19.20;51.60
2913;DHT22;1466;48.778;9.166;2023-04-10T17:11:00;19.10;51.70
2913;DHT22;1466;48.778;9.166;2023-04-10T17:13:25;19.00;52.40
2913;DHT22;1466;48.778;9.166;2023-04-10T17:15:51;19.00;51.90
2913;DHT22;1466;48.778;9.166;2023-04-10T17:18:16;19.00;51.80
2913;DHT22;1466;48.778;9.166;2023-04-10T17:20:44;18.90;51.80
2913;DHT22;1466;48.778;9.166;2023-04-10T17:23:10;18.90;51.70
2913;DHT22;1466;48.778;9.166;2023-04-10T17:25:39;18.90;51.70
2913;DHT22;1466;48.778;9.166;2023-04-10T17:28:05;18.90;51.70
2913;DHT22;1466;48.778;9.166;2023-04-10T17:30:30;18.80;51.60
2913;DHT22;1466;48.778;9.166;2023-04-10T17:32:56;18.80;51.70
2913;DHT22;1466;48.778;9.166;2023-04-10T17:35:21;18.80;51.70